sensor_id;sensor_type;location;lat;lon;timestamp;pressure;altitude;pressure_sealevel;temperature;humidity
70407;BME280;57821;52.202;0.154;2022-12-20T00:01:41;100396.03;;;13.32;93.89
70407;BME280;57821;52.202;0.154;2022-12-20T00:04:09;100389.97;;;13.30;93.83
70407;BME280;57821;52.202;0.154;2022-12-20T00:06:36;100405.59;;;13.31;93.57
70407;BME280;57821;52.202;0.154;2022-12-20T00:09:05;100402.91;;;13.34;93.69
70407;BME280;57821;52.202;0.154;2022-12-20T00:11:34;100403.75;;;13.35;93.43
70407;BME280;57821;52.202;0.154;2022-12-20T00:14:01;100393.34;;;13.35;93.62
70407;BME280;57821;52.202;0.154;2022-12-20T00:16:28;100416.78;;;13.35;93.58
70407;BME280;57821;52.202;0.154;2022-12-20T00:18:57;100398.59;;;13.33;93.10
70407;BME280;57821;52.202;0.154;2022-12-20T00:21:24;100396.81;;;13.34;93.50
70407;BME280;57821;52.202;0.154;2022-12-20T00:23:52;100395.16;;;13.33;93.72
70407;BME280;57821;52.202;0.154;2022-12-20T00:26:22;100396.91;;;13.31;93.77
70407;BME280;57821;52.202;0.154;2022-12-20T00:28:51;100399.50;;;13.32;93.94
70407;BME280;57821;52.202;0.154;2022-12-20T00:31:20;100402.97;;;13.31;93.87
70407;BME280;57821;52.202;0.154;2022-12-20T00:33:49;100398.72;;;13.27;93.67
70407;BME280;57821;52.202;0.154;2022-12-20T00:36:17;100395.28;;;13.25;93.80
70407;BME280;57821;52.202;0.154;2022-12-20T00:38:48;100400.41;;;13.28;94.08
70407;BME280;57821;52.202;0.154;2022-12-20T00:41:21;100391.00;;;13.23;93.55
70407;BME280;57821;52.202;0.154;2022-12-20T00:43:49;100395.25;;;13.27;93.87
70407;BME280;57821;52.202;0.154;2022-12-20T00:46:19;100401.28;;;13.29;93.78
70407;BME280;57821;52.202;0.154;2022-12-20T00:48:46;100396.06;;;13.29;93.60
70407;BME280;57821;52.202;0.154;2022-12-20T00:51:16;100392.59;;;13.30;93.08
70407;BME280;57821;52.202;0.154;2022-12-20T00:53:43;100387.38;;;13.30;93.17
70407;BME280;57821;52.202;0.154;2022-12-20T00:56:10;100385.63;;;13.30;93.42
70407;BME280;57821;52.202;0.154;2022-12-20T00:58:39;100389.19;;;13.26;93.22
70407;BME280;57821;52.202;0.154;2022-12-20T01:01:14;100389.13;;;13.29;92.60
70407;BME280;57821;52.202;0.154;2022-12-20T01:03:41;100374.44;;;13.27;92.52
70407;BME280;57821;52.202;0.154;2022-12-20T01:06:09;100385.63;;;13.30;92.37
70407;BME280;57821;52.202;0.154;2022-12-20T01:08:35;100387.38;;;13.30;92.59
70407;BME280;57821;52.202;0.154;2022-12-20T01:11:14;100379.66;;;13.25;92.11
70407;BME280;57821;52.202;0.154;2022-12-20T01:13:44;100382.28;;;13.24;91.94
70407;BME280;57821;52.202;0.154;2022-12-20T01:16:15;100375.41;;;13.21;91.91
70407;BME280;57821;52.202;0.154;2022-12-20T01:18:42;100382.19;;;13.28;92.06
70407;BME280;57821;52.202;0.154;2022-12-20T01:24:33;100385.03;;;13.18;92.66
70407;BME280;57821;52.202;0.154;2022-12-20T01:27:00;100379.88;;;13.14;92.83
70407;BME280;57821;52.202;0.154;2022-12-20T01:29:26;100376.50;;;13.09;93.47
70407;BME280;57821;52.202;0.154;2022-12-20T01:31:53;100370.59;;;13.00;93.63
70407;BME280;57821;52.202;0.154;2022-12-20T01:34:19;100381.94;;;12.97;93.91
70407;BME280;57821;52.202;0.154;2022-12-20T01:36:46;100363.00;;;12.89;94.03
70407;BME280;57821;52.202;0.154;2022-12-20T01:39:14;100390.66;;;12.93;94.19
70407;BME280;57821;52.202;0.154;2022-12-20T01:41:43;100389.88;;;12.90;94.57
70407;BME280;57821;52.202;0.154;2022-12-20T01:46:44;100385.66;;;12.84;94.75
70407;BME280;57821;52.202;0.154;2022-12-20T01:52:26;100382.28;;;12.79;94.84
70407;BME280;57821;52.202;0.154;2022-12-20T01:55:02;100384.91;;;12.76;95.37
70407;BME280;57821;52.202;0.154;2022-12-20T01:58:05;100386.63;;;12.79;95.32
70407;BME280;57821;52.202;0.154;2022-12-20T02:00:33;100380.56;;;12.78;95.86
70407;BME280;57821;52.202;0.154;2022-12-20T02:03:04;100377.22;;;12.70;96.08
70407;BME280;57821;52.202;0.154;2022-12-20T02:05:37;100389.25;;;12.77;96.24
70407;BME280;57821;52.202;0.154;2022-12-20T02:08:05;100388.38;;;12.76;96.27
70407;BME280;57821;52.202;0.154;2022-12-20T02:16:25;100384.03;;;12.77;97.06
70407;BME280;57821;52.202;0.154;2022-12-20T02:27:30;100362.53;;;12.69;96.41
70407;BME280;57821;52.202;0.154;2022-12-20T02:32:53;100353.91;;;12.65;96.59
70407;BME280;57821;52.202;0.154;2022-12-20T02:35:27;100342.72;;;12.62;96.87
70407;BME280;57821;52.202;0.154;2022-12-20T02:37:58;100349.56;;;12.66;97.16
70407;BME280;57821;52.202;0.154;2022-12-20T02:40:29;100359.09;;;12.67;96.97
70407;BME280;57821;52.202;0.154;2022-12-20T02:43:02;100356.47;;;12.68;97.50
70407;BME280;57821;52.202;0.154;2022-12-20T02:45:32;100354.72;;;12.69;96.64
70407;BME280;57821;52.202;0.154;2022-12-20T02:50:35;100345.09;;;12.74;97.47
70407;BME280;57821;52.202;0.154;2022-12-20T02:53:04;100348.50;;;12.76;97.09
70407;BME280;57821;52.202;0.154;2022-12-20T02:58:32;100342.38;;;12.80;97.59
70407;BME280;57821;52.202;0.154;2022-12-20T03:01:05;100335.38;;;12.82;97.23
70407;BME280;57821;52.202;0.154;2022-12-20T03:03:34;100333.63;;;12.84;97.10
70407;BME280;57821;52.202;0.154;2022-12-20T03:06:01;100331.84;;;12.86;97.13
70407;BME280;57821;52.202;0.154;2022-12-20T03:08:28;100330.06;;;12.88;97.46
70407;BME280;57821;52.202;0.154;2022-12-20T03:10:56;100333.69;;;12.81;97.27
70407;BME280;57821;52.202;0.154;2022-12-20T03:13:24;100337.06;;;12.85;97.22
70407;BME280;57821;52.202;0.154;2022-12-20T03:15:58;100332.66;;;12.88;97.59
70407;BME280;57821;52.202;0.154;2022-12-20T03:18:25;100324.94;;;12.85;97.48
70407;BME280;57821;52.202;0.154;2022-12-20T03:20:51;100334.41;;;12.88;97.26
70407;BME280;57821;52.202;0.154;2022-12-20T03:23:18;100336.97;;;12.89;97.18
70407;BME280;57821;52.202;0.154;2022-12-20T03:25:45;100344.78;;;12.89;97.58
70407;BME280;57821;52.202;0.154;2022-12-20T03:28:19;100334.38;;;12.89;97.89
70407;BME280;57821;52.202;0.154;2022-12-20T03:30:46;100321.38;;;12.89;97.84
70407;BME280;57821;52.202;0.154;2022-12-20T03:33:13;100309.31;;;12.85;97.85
70407;BME280;57821;52.202;0.154;2022-12-20T03:35:40;100328.38;;;12.86;97.63
70407;BME280;57821;52.202;0.154;2022-12-20T03:38:08;100328.41;;;12.84;97.75
70407;BME280;57821;52.202;0.154;2022-12-20T03:40:35;100313.69;;;12.82;97.68
70407;BME280;57821;52.202;0.154;2022-12-20T03:43:02;100307.72;;;12.78;98.18
70407;BME280;57821;52.202;0.154;2022-12-20T03:45:28;100301.56;;;12.82;98.04
70407;BME280;57821;52.202;0.154;2022-12-20T03:47:55;100302.41;;;12.83;98.03
70407;BME280;57821;52.202;0.154;2022-12-20T03:50:25;100312.81;;;12.84;97.97
70407;BME280;57821;52.202;0.154;2022-12-20T03:52:51;100302.41;;;12.84;97.51
70407;BME280;57821;52.202;0.154;2022-12-20T03:55:18;100309.31;;;12.85;97.17
70407;BME280;57821;52.202;0.154;2022-12-20T03:57:44;100303.13;;;12.91;97.19
70407;BME280;57821;52.202;0.154;2022-12-20T04:00:31;100290.13;;;12.89;97.42
70407;BME280;57821;52.202;0.154;2022-12-20T04:03:18;100286.56;;;12.93;97.34
70407;BME280;57821;52.202;0.154;2022-12-20T04:05:45;100285.69;;;12.94;96.60
70407;BME280;57821;52.202;0.154;2022-12-20T04:08:11;100278.69;;;12.98;97.32
70407;BME280;57821;52.202;0.154;2022-12-20T04:10:38;100257.06;;;12.94;96.79
70407;BME280;57821;52.202;0.154;2022-12-20T04:13:06;100272.56;;;13.00;97.29
70407;BME280;57821;52.202;0.154;2022-12-20T04:15:32;100269.97;;;13.00;97.33
70407;BME280;57821;52.202;0.154;2022-12-20T04:18:00;100260.44;;;12.99;97.01
70407;BME280;57821;52.202;0.154;2022-12-20T04:20:26;100255.31;;;12.96;97.31
70407;BME280;57821;52.202;0.154;2022-12-20T04:23:05;100259.56;;;12.99;97.26
70407;BME280;57821;52.202;0.154;2022-12-20T04:25:32;100249.22;;;12.97;97.65
70407;BME280;57821;52.202;0.154;2022-12-20T04:27:58;100247.47;;;12.98;97.26
70407;BME280;57821;52.202;0.154;2022-12-20T04:30:25;100235.34;;;12.97;97.47
70407;BME280;57821;52.202;0.154;2022-12-20T04:32:52;100232.75;;;12.97;97.61
70407;BME280;57821;52.202;0.154;2022-12-20T04:35:20;100231.88;;;12.98;97.38
70407;BME280;57821;52.202;0.154;2022-12-20T04:37:46;100227.59;;;12.94;97.63
70407;BME280;57821;52.202;0.154;2022-12-20T04:40:14;100229.28;;;12.96;97.63
70407;BME280;57821;52.202;0.154;2022-12-20T04:42:51;100224.09;;;12.95;97.75
70407;BME280;57821;52.202;0.154;2022-12-20T04:45:18;100228.44;;;12.96;97.82
70407;BME280;57821;52.202;0.154;2022-12-20T04:47:45;100225.78;;;12.97;97.61
70407;BME280;57821;52.202;0.154;2022-12-20T04:50:15;100213.66;;;12.96;97.83
70407;BME280;57821;52.202;0.154;2022-12-20T04:52:42;100215.44;;;12.94;97.62
70407;BME280;57821;52.202;0.154;2022-12-20T04:55:14;100217.28;;;12.89;98.17
70407;BME280;57821;52.202;0.154;2022-12-20T04:57:40;100212.09;;;12.88;98.11
70407;BME280;57821;52.202;0.154;2022-12-20T05:00:08;100215.56;;;12.88;98.11
70407;BME280;57821;52.202;0.154;2022-12-20T05:02:40;100211.19;;;12.92;97.88
70407;BME280;57821;52.202;0.154;2022-12-20T05:05:11;100205.16;;;12.88;98.03
70407;BME280;57821;52.202;0.154;2022-12-20T05:07:44;100196.59;;;12.83;97.79
70407;BME280;57821;52.202;0.154;2022-12-20T05:10:11;100210.44;;;12.87;98.08
70407;BME280;57821;52.202;0.154;2022-12-20T05:12:38;100219.91;;;12.88;98.31
70407;BME280;57821;52.202;0.154;2022-12-20T05:15:10;100193.28;;;12.76;98.36
70407;BME280;57821;52.202;0.154;2022-12-20T05:17:37;100214.00;;;12.81;98.63
70407;BME280;57821;52.202;0.154;2022-12-20T05:20:05;100215.78;;;12.79;99.01
70407;BME280;57821;52.202;0.154;2022-12-20T05:22:32;100202.91;;;12.73;98.52
70407;BME280;57821;52.202;0.154;2022-12-20T05:25:04;100197.69;;;12.73;98.81
70407;BME280;57821;52.202;0.154;2022-12-20T05:27:35;100183.09;;;12.66;99.07
70407;BME280;57821;52.202;0.154;2022-12-20T05:30:03;100195.16;;;12.70;99.01
70407;BME280;57821;52.202;0.154;2022-12-20T05:32:30;100185.78;;;12.63;98.97
70407;BME280;57821;52.202;0.154;2022-12-20T05:34:57;100195.22;;;12.67;99.19
70407;BME280;57821;52.202;0.154;2022-12-20T05:37:23;100198.72;;;12.66;99.29
70407;BME280;57821;52.202;0.154;2022-12-20T05:39:50;100195.34;;;12.61;98.97
70407;BME280;57821;52.202;0.154;2022-12-20T05:42:20;100190.25;;;12.56;98.79
70407;BME280;57821;52.202;0.154;2022-12-20T05:44:50;100189.38;;;12.57;99.11
70407;BME280;57821;52.202;0.154;2022-12-20T05:47:18;100188.50;;;12.57;99.36
70407;BME280;57821;52.202;0.154;2022-12-20T05:49:46;100180.72;;;12.55;99.38
70407;BME280;57821;52.202;0.154;2022-12-20T05:52:13;100195.44;;;12.58;99.19
70407;BME280;57821;52.202;0.154;2022-12-20T05:54:40;100201.44;;;12.60;99.40
70407;BME280;57821;52.202;0.154;2022-12-20T05:57:13;100200.63;;;12.58;99.02
70407;BME280;57821;52.202;0.154;2022-12-20T05:59:40;100209.25;;;12.60;99.59
70407;BME280;57821;52.202;0.154;2022-12-20T06:02:16;100205.00;;;12.56;99.53
70407;BME280;57821;52.202;0.154;2022-12-20T06:04:45;100198.97;;;12.54;99.60
70407;BME280;57821;52.202;0.154;2022-12-20T06:07:15;100223.13;;;12.59;99.53
70407;BME280;57821;52.202;0.154;2022-12-20T06:09:45;100220.41;;;12.65;99.70
70407;BME280;57821;52.202;0.154;2022-12-20T06:12:14;100215.28;;;12.62;99.37
70407;BME280;57821;52.202;0.154;2022-12-20T06:14:42;100229.16;;;12.61;99.55
70407;BME280;57821;52.202;0.154;2022-12-20T06:17:10;100217.00;;;12.63;99.56
70407;BME280;57821;52.202;0.154;2022-12-20T06:19:37;100207.50;;;12.60;99.39
70407;BME280;57821;52.202;0.154;2022-12-20T06:22:07;100261.09;;;12.69;99.37
70407;BME280;57821;52.202;0.154;2022-12-20T06:24:40;100294.91;;;12.69;98.69
70407;BME280;57821;52.202;0.154;2022-12-20T06:27:15;100304.88;;;12.46;97.35
70407;BME280;57821;52.202;0.154;2022-12-20T06:29:41;100331.34;;;12.18;98.08
70407;BME280;57821;52.202;0.154;2022-12-20T06:32:10;100341.31;;;11.93;97.37
70407;BME280;57821;52.202;0.154;2022-12-20T06:34:37;100353.84;;;11.64;96.79
70407;BME280;57821;52.202;0.154;2022-12-20T06:37:04;100360.31;;;11.31;97.16
70407;BME280;57821;52.202;0.154;2022-12-20T06:39:33;100379.63;;;11.09;97.95
70407;BME280;57821;52.202;0.154;2022-12-20T06:42:04;100369.59;;;10.82;98.49
70407;BME280;57821;52.202;0.154;2022-12-20T06:44:33;100390.47;;;10.66;100.00
70407;BME280;57821;52.202;0.154;2022-12-20T06:47:00;100393.22;;;10.51;100.00
70407;BME280;57821;52.202;0.154;2022-12-20T06:49:28;100384.72;;;10.34;100.00
70407;BME280;57821;52.202;0.154;2022-12-20T06:51:55;100390.81;;;10.28;100.00
70407;BME280;57821;52.202;0.154;2022-12-20T06:54:30;100397.81;;;10.16;100.00
70407;BME280;57821;52.202;0.154;2022-12-20T06:56:57;100420.28;;;10.11;100.00
70407;BME280;57821;52.202;0.154;2022-12-20T06:59:24;100433.28;;;10.05;100.00
70407;BME280;57821;52.202;0.154;2022-12-20T07:01:51;100434.19;;;9.98;100.00
70407;BME280;57821;52.202;0.154;2022-12-20T07:04:18;100436.00;;;9.89;100.00
70407;BME280;57821;52.202;0.154;2022-12-20T07:06:48;100440.34;;;9.83;100.00
70407;BME280;57821;52.202;0.154;2022-12-20T07:09:15;100448.09;;;9.81;100.00
70407;BME280;57821;52.202;0.154;2022-12-20T07:11:42;100441.22;;;9.74;100.00
70407;BME280;57821;52.202;0.154;2022-12-20T07:14:09;100447.28;;;9.75;100.00
70407;BME280;57821;52.202;0.154;2022-12-20T07:16:36;100437.81;;;9.68;100.00
70407;BME280;57821;52.202;0.154;2022-12-20T07:19:03;100461.97;;;9.71;100.00
70407;BME280;57821;52.202;0.154;2022-12-20T07:21:29;100464.56;;;9.70;100.00
70407;BME280;57821;52.202;0.154;2022-12-20T07:23:56;100468.03;;;9.66;100.00
70407;BME280;57821;52.202;0.154;2022-12-20T07:26:22;100477.53;;;9.65;100.00
70407;BME280;57821;52.202;0.154;2022-12-20T07:28:49;100474.97;;;9.61;100.00
70407;BME280;57821;52.202;0.154;2022-12-20T07:31:15;100481.88;;;9.57;100.00
70407;BME280;57821;52.202;0.154;2022-12-20T07:33:42;100489.66;;;9.54;100.00
70407;BME280;57821;52.202;0.154;2022-12-20T07:36:11;100481.91;;;9.48;100.00
70407;BME280;57821;52.202;0.154;2022-12-20T07:38:38;100495.72;;;9.45;100.00
70407;BME280;57821;52.202;0.154;2022-12-20T07:41:10;100506.94;;;9.41;100.00
70407;BME280;57821;52.202;0.154;2022-12-20T07:43:38;100502.63;;;9.39;100.00
70407;BME280;57821;52.202;0.154;2022-12-20T07:46:05;100503.50;;;9.35;100.00
70407;BME280;57821;52.202;0.154;2022-12-20T07:48:33;100509.56;;;9.29;100.00
70407;BME280;57821;52.202;0.154;2022-12-20T07:51:13;100512.19;;;9.25;100.00
70407;BME280;57821;52.202;0.154;2022-12-20T07:53:44;100512.19;;;9.19;100.00
70407;BME280;57821;52.202;0.154;2022-12-20T07:56:13;100521.66;;;9.15;100.00
70407;BME280;57821;52.202;0.154;2022-12-20T07:58:41;100525.97;;;9.08;100.00
70407;BME280;57821;52.202;0.154;2022-12-20T08:01:09;100538.91;;;9.04;100.00
70407;BME280;57821;52.202;0.154;2022-12-20T08:03:43;100548.41;;;8.97;100.00
70407;BME280;57821;52.202;0.154;2022-12-20T08:06:12;100554.44;;;8.98;100.00
70407;BME280;57821;52.202;0.154;2022-12-20T08:08:45;100563.06;;;8.88;100.00
70407;BME280;57821;52.202;0.154;2022-12-20T08:11:13;100572.53;;;8.93;100.00
70407;BME280;57821;52.202;0.154;2022-12-20T08:13:40;100563.06;;;8.85;100.00
70407;BME280;57821;52.202;0.154;2022-12-20T08:16:12;100563.06;;;8.83;100.00
70407;BME280;57821;52.202;0.154;2022-12-20T08:18:39;100576.00;;;8.89;100.00
70407;BME280;57821;52.202;0.154;2022-12-20T08:21:06;100569.94;;;8.86;100.00
70407;BME280;57821;52.202;0.154;2022-12-20T08:23:33;100582.91;;;8.90;100.00
70407;BME280;57821;52.202;0.154;2022-12-20T08:26:00;100586.34;;;8.89;100.00
70407;BME280;57821;52.202;0.154;2022-12-20T08:28:37;100557.88;;;8.71;100.00
70407;BME280;57821;52.202;0.154;2022-12-20T08:31:12;100596.66;;;8.92;100.00
70407;BME280;57821;52.202;0.154;2022-12-20T08:33:39;100594.94;;;8.91;100.00
70407;BME280;57821;52.202;0.154;2022-12-20T08:36:10;100596.69;;;8.91;100.00
70407;BME280;57821;52.202;0.154;2022-12-20T08:38:37;100609.63;;;8.91;100.00
70407;BME280;57821;52.202;0.154;2022-12-20T08:41:10;100622.53;;;8.94;100.00
70407;BME280;57821;52.202;0.154;2022-12-20T08:43:37;100633.75;;;8.93;100.00
70407;BME280;57821;52.202;0.154;2022-12-20T08:46:05;100639.75;;;8.92;100.00
70407;BME280;57821;52.202;0.154;2022-12-20T08:48:32;100642.34;;;8.92;100.00
70407;BME280;57821;52.202;0.154;2022-12-20T08:51:04;100632.00;;;8.83;100.00
70407;BME280;57821;52.202;0.154;2022-12-20T08:53:32;100653.56;;;8.89;100.00
70407;BME280;57821;52.202;0.154;2022-12-20T08:56:07;100655.28;;;8.87;100.00
70407;BME280;57821;52.202;0.154;2022-12-20T08:58:34;100659.59;;;8.87;100.00
70407;BME280;57821;52.202;0.154;2022-12-20T09:01:03;100661.31;;;8.85;100.00
70407;BME280;57821;52.202;0.154;2022-12-20T09:03:33;100669.06;;;8.86;100.00
70407;BME280;57821;52.202;0.154;2022-12-20T09:06:00;100676.00;;;8.90;100.00
70407;BME280;57821;52.202;0.154;2022-12-20T09:08:26;100675.97;;;8.93;100.00
70407;BME280;57821;52.202;0.154;2022-12-20T09:10:53;100676.00;;;8.96;100.00
70407;BME280;57821;52.202;0.154;2022-12-20T09:13:19;100669.09;;;8.98;100.00
70407;BME280;57821;52.202;0.154;2022-12-20T09:15:46;100663.91;;;8.98;100.00
70407;BME280;57821;52.202;0.154;2022-12-20T09:18:12;100672.56;;;9.02;100.00
70407;BME280;57821;52.202;0.154;2022-12-20T09:20:42;100677.72;;;9.03;100.00
70407;BME280;57821;52.202;0.154;2022-12-20T09:23:09;100683.75;;;9.04;100.00
70407;BME280;57821;52.202;0.154;2022-12-20T09:25:36;100677.72;;;9.10;100.00
70407;BME280;57821;52.202;0.154;2022-12-20T09:28:03;100688.06;;;9.22;100.00
70407;BME280;57821;52.202;0.154;2022-12-20T09:30:30;100686.38;;;9.42;100.00
70407;BME280;57821;52.202;0.154;2022-12-20T09:32:56;100681.19;;;9.66;100.00
70407;BME280;57821;52.202;0.154;2022-12-20T09:35:35;100685.44;;;9.93;100.00
70407;BME280;57821;52.202;0.154;2022-12-20T09:38:03;100689.72;;;10.23;100.00
70407;BME280;57821;52.202;0.154;2022-12-20T09:40:30;100686.97;;;10.55;100.00
70407;BME280;57821;52.202;0.154;2022-12-20T09:42:57;100701.56;;;10.79;100.00
70407;BME280;57821;52.202;0.154;2022-12-20T09:45:27;100689.38;;;10.93;100.00
70407;BME280;57821;52.202;0.154;2022-12-20T09:47:54;100711.66;;;11.24;100.00
70407;BME280;57821;52.202;0.154;2022-12-20T09:50:34;100703.72;;;11.44;100.00
70407;BME280;57821;52.202;0.154;2022-12-20T09:55:58;100719.66;;;12.05;100.00
70407;BME280;57821;52.202;0.154;2022-12-20T09:58:36;100707.28;;;12.28;100.00
70407;BME280;57821;52.202;0.154;2022-12-20T10:01:16;100712.28;;;12.44;100.00
70407;BME280;57821;52.202;0.154;2022-12-20T10:03:51;100723.41;;;12.55;100.00
70407;BME280;57821;52.202;0.154;2022-12-20T10:09:32;100719.09;;;12.54;100.00
70407;BME280;57821;52.202;0.154;2022-12-20T10:22:53;100734.63;;;12.60;100.00
70407;BME280;57821;52.202;0.154;2022-12-20T10:25:27;100729.47;;;12.55;100.00
70407;BME280;57821;52.202;0.154;2022-12-20T10:27:56;100747.56;;;12.64;100.00
70407;BME280;57821;52.202;0.154;2022-12-20T10:30:26;100754.41;;;12.71;100.00
70407;BME280;57821;52.202;0.154;2022-12-20T10:32:55;100758.59;;;12.83;100.00
70407;BME280;57821;52.202;0.154;2022-12-20T10:35:24;100756.84;;;12.84;100.00
70407;BME280;57821;52.202;0.154;2022-12-20T10:38:06;100757.78;;;12.80;100.00
70407;BME280;57821;52.202;0.154;2022-12-20T10:40:38;100762.22;;;12.70;100.00
70407;BME280;57821;52.202;0.154;2022-12-20T10:43:25;100757.28;;;12.52;100.00
70407;BME280;57821;52.202;0.154;2022-12-20T10:45:58;100767.81;;;12.38;100.00
70407;BME280;57821;52.202;0.154;2022-12-20T10:48:31;100755.88;;;12.20;100.00
70407;BME280;57821;52.202;0.154;2022-12-20T10:51:01;100762.13;;;12.01;100.00
70407;BME280;57821;52.202;0.154;2022-12-20T10:53:30;100764.00;;;11.84;100.00
70407;BME280;57821;52.202;0.154;2022-12-20T10:58:41;100756.47;;;11.50;100.00
70407;BME280;57821;52.202;0.154;2022-12-20T11:01:14;100756.59;;;11.32;100.00
70407;BME280;57821;52.202;0.154;2022-12-20T11:06:16;100754.16;;;11.06;100.00
70407;BME280;57821;52.202;0.154;2022-12-20T11:08:43;100757.69;;;10.93;100.00
70407;BME280;57821;52.202;0.154;2022-12-20T11:11:23;100750.84;;;10.80;100.00
70407;BME280;57821;52.202;0.154;2022-12-20T11:13:51;100754.31;;;10.76;100.00
70407;BME280;57821;52.202;0.154;2022-12-20T11:16:33;100760.41;;;10.70;100.00
70407;BME280;57821;52.202;0.154;2022-12-20T11:26:57;100765.66;;;10.43;100.00
70407;BME280;57821;52.202;0.154;2022-12-20T11:35:51;100759.66;;;10.26;100.00
70407;BME280;57821;52.202;0.154;2022-12-20T11:38:40;100765.72;;;10.22;100.00
70407;BME280;57821;52.202;0.154;2022-12-20T11:41:10;100757.94;;;10.22;100.00
70407;BME280;57821;52.202;0.154;2022-12-20T11:50:07;100744.09;;;10.15;100.00
70407;BME280;57821;52.202;0.154;2022-12-20T11:52:42;100740.66;;;10.13;100.00
70407;BME280;57821;52.202;0.154;2022-12-20T11:58:00;100743.28;;;10.18;100.00
70407;BME280;57821;52.202;0.154;2022-12-20T12:01:03;100748.44;;;10.27;100.00
70407;BME280;57821;52.202;0.154;2022-12-20T12:03:37;100751.00;;;10.33;100.00
70407;BME280;57821;52.202;0.154;2022-12-20T12:06:09;100744.97;;;10.28;100.00
70407;BME280;57821;52.202;0.154;2022-12-20T12:11:50;100751.88;;;10.32;100.00
70407;BME280;57821;52.202;0.154;2022-12-20T12:14:56;100744.97;;;10.31;100.00
70407;BME280;57821;52.202;0.154;2022-12-20T12:17:31;100757.91;;;10.37;100.00
70407;BME280;57821;52.202;0.154;2022-12-20T12:20:17;100753.59;;;10.36;100.00
70407;BME280;57821;52.202;0.154;2022-12-20T12:22:46;100763.94;;;10.39;100.00
70407;BME280;57821;52.202;0.154;2022-12-20T12:25:16;100769.13;;;10.39;100.00
70407;BME280;57821;52.202;0.154;2022-12-20T12:27:43;100762.25;;;10.37;100.00
70407;BME280;57821;52.202;0.154;2022-12-20T12:30:15;100748.44;;;10.30;100.00
70407;BME280;57821;52.202;0.154;2022-12-20T12:32:43;100760.50;;;10.37;100.00
70407;BME280;57821;52.202;0.154;2022-12-20T12:35:37;100763.94;;;10.39;100.00
70407;BME280;57821;52.202;0.154;2022-12-20T12:38:30;100753.56;;;10.45;100.00
70407;BME280;57821;52.202;0.154;2022-12-20T12:46:31;100735.38;;;10.59;100.00
70407;BME280;57821;52.202;0.154;2022-12-20T12:49:04;100734.53;;;10.60;100.00
70407;BME280;57821;52.202;0.154;2022-12-20T12:51:36;100749.16;;;10.67;100.00
70407;BME280;57821;52.202;0.154;2022-12-20T12:56:49;100743.91;;;10.78;100.00
70407;BME280;57821;52.202;0.154;2022-12-20T13:04:28;100750.78;;;10.89;99.01
70407;BME280;57821;52.202;0.154;2022-12-20T13:07:40;100762.00;;;11.00;100.00
70407;BME280;57821;52.202;0.154;2022-12-20T13:17:50;100749.78;;;11.15;99.58
70407;BME280;57821;52.202;0.154;2022-12-20T13:20:21;100760.13;;;11.19;100.00
70407;BME280;57821;52.202;0.154;2022-12-20T13:25:47;100753.16;;;11.24;96.88
70407;BME280;57821;52.202;0.154;2022-12-20T13:38:49;100751.53;;;11.11;90.84
70407;BME280;57821;52.202;0.154;2022-12-20T13:42:21;100755.00;;;11.07;98.93
70407;BME280;57821;52.202;0.154;2022-12-20T13:44:42;100748.16;;;10.95;97.81
70407;BME280;57821;52.202;0.154;2022-12-20T13:47:18;100736.09;;;10.84;97.82
70407;BME280;57821;52.202;0.154;2022-12-20T13:49:48;100742.13;;;10.90;98.48
70407;BME280;57821;52.202;0.154;2022-12-20T13:52:27;100744.75;;;10.89;98.61
70407;BME280;57821;52.202;0.154;2022-12-20T13:54:57;100731.81;;;10.83;99.13
70407;BME280;57821;52.202;0.154;2022-12-20T13:57:28;100739.56;;;10.86;97.99
70407;BME280;57821;52.202;0.154;2022-12-20T13:59:59;100737.84;;;10.88;97.24
70407;BME280;57821;52.202;0.154;2022-12-20T14:02:35;100729.22;;;10.78;97.11
70407;BME280;57821;52.202;0.154;2022-12-20T14:05:12;100737.03;;;10.75;97.53
70407;BME280;57821;52.202;0.154;2022-12-20T14:07:40;100750.00;;;10.75;95.62
70407;BME280;57821;52.202;0.154;2022-12-20T14:10:21;100759.53;;;10.70;98.07
70407;BME280;57821;52.202;0.154;2022-12-20T14:12:49;100750.03;;;10.63;95.12
70407;BME280;57821;52.202;0.154;2022-12-20T14:15:31;100755.25;;;10.58;98.38
70407;BME280;57821;52.202;0.154;2022-12-20T14:18:05;100759.56;;;10.55;98.63
70407;BME280;57821;52.202;0.154;2022-12-20T14:20:34;100750.09;;;10.45;97.38
70407;BME280;57821;52.202;0.154;2022-12-20T14:23:04;100752.69;;;10.43;98.09
70407;BME280;57821;52.202;0.154;2022-12-20T14:25:42;100764.81;;;10.38;98.11
70407;BME280;57821;52.202;0.154;2022-12-20T14:28:38;100760.50;;;10.31;98.61
70407;BME280;57821;52.202;0.154;2022-12-20T14:31:05;100756.19;;;10.25;98.11
70407;BME280;57821;52.202;0.154;2022-12-20T14:33:39;100753.63;;;10.21;98.35
70407;BME280;57821;52.202;0.154;2022-12-20T14:36:08;100753.59;;;10.15;98.21
70407;BME280;57821;52.202;0.154;2022-12-20T14:38:34;100757.06;;;10.08;98.53
70407;BME280;57821;52.202;0.154;2022-12-20T14:41:01;100769.16;;;10.04;97.82
70407;BME280;57821;52.202;0.154;2022-12-20T14:43:32;100776.97;;;10.00;99.14
70407;BME280;57821;52.202;0.154;2022-12-20T14:46:33;100770.06;;;9.96;100.00
70407;BME280;57821;52.202;0.154;2022-12-20T14:49:25;100768.31;;;9.85;99.03
70407;BME280;57821;52.202;0.154;2022-12-20T14:52:26;100770.94;;;9.82;98.89
70407;BME280;57821;52.202;0.154;2022-12-20T14:57:42;100788.19;;;9.71;98.22
70407;BME280;57821;52.202;0.154;2022-12-20T15:18:32;100782.97;;;9.26;99.17
70407;BME280;57821;52.202;0.154;2022-12-20T15:21:28;100793.28;;;9.23;100.00
70407;BME280;57821;52.202;0.154;2022-12-20T15:23:57;100796.75;;;9.19;99.50